Lacey, New Jersey
Current Conditions -  °F | °C
As of 2:55 AM on Sunday 26 Oct 2014 (Local Time) from KMJX Reporting Station
Overcast Overcast  
Wind Chill: 57°   Ceiling: 8500
Heat Index: 57°   Visibility: 10mi
Dew Point: 45°   Wind: 5mph
Humidity: 63%   Direction: 260°W
Pressure: 29.6"   Gusts: NA
Location:  39.8591°N, 74.2817°W
Report Text: KMJX 260655Z AUTO 26004KT 10SM OVC085 14/07 A2960 RMK AO1
Loading
Personal Weather Stations






























Interactive Weather Map New forecast layout! Learn more

10-Day Weather Forecast

Advertisements
Track Severe Weather on mobile